Time;durP1;ratioP1;P1;durP2;ratioP2;P2;SDS_P1;SDS_P2;PMS_P1;PMS_P2;Temp;Humidity;BMP_temperature;BMP_pressure;BME280_temperature;BME280_humidity;BME280_pressure;Samples;Min_cycle;Max_cycle;Signal;HPM_P1;HPM_P2
2023/12/05 00:02:07;;;;;;;7.82;1.50;;;;;;;10.25;90.66;99414.16;5026758;28;20049;-62
2023/12/05 00:04:36;;;;;;;6.13;1.23;;;;;;;10.21;89.68;99419.56;5026076;28;20049;-63
2023/12/05 00:07:03;;;;;;;5.45;1.40;;;;;;;10.09;91.01;99419.53;5022435;28;20040;-63
2023/12/05 00:09:32;;;;;;;5.30;1.00;;;;;;;9.99;92.23;99420.75;5007615;28;20057;-61
2023/12/05 00:11:59;;;;;;;5.93;1.10;;;;;;;10.04;93.20;99423.28;5028620;28;20048;-63
2023/12/05 00:14:26;;;;;;;6.55;1.20;;;;;;;10.09;91.95;99425.03;5019994;28;20057;-62
2023/12/05 00:16:53;;;;;;;6.65;1.10;;;;;;;10.35;92.06;99430.22;5031044;28;20397;-61
2023/12/05 00:19:21;;;;;;;6.38;1.30;;;;;;;10.36;91.29;99418.06;5030942;28;20080;-63
2023/12/05 00:21:48;;;;;;;6.68;1.42;;;;;;;10.15;91.77;99432.72;5034713;28;20045;-62
2023/12/05 00:24:16;;;;;;;5.78;1.02;;;;;;;10.28;91.92;99433.56;5044340;28;20096;-63
2023/12/05 00:26:43;;;;;;;7.05;1.52;;;;;;;10.25;89.74;99427.94;5018640;28;20057;-61
2023/12/05 00:29:11;;;;;;;10.23;1.70;;;;;;;10.17;90.25;99426.88;5036511;28;20061;-62
2023/12/05 00:31:38;;;;;;;5.63;1.27;;;;;;;10.28;90.17;99428.06;5030763;28;20041;-63
2023/12/05 00:34:06;;;;;;;4.18;1.17;;;;;;;10.26;89.77;99422.06;5045910;28;20063;-62
2023/12/05 00:36:33;;;;;;;5.03;1.45;;;;;;;10.10;89.80;99418.38;5016462;28;20049;-63
2023/12/05 00:39:01;;;;;;;6.72;1.40;;;;;;;10.11;89.87;99417.25;5012536;28;20093;-62
2023/12/05 00:41:28;;;;;;;11.82;2.00;;;;;;;10.11;88.69;99431.00;5041138;28;20053;-63
2023/12/05 00:43:56;;;;;;;13.88;1.67;;;;;;;10.16;89.16;99425.28;5031367;28;20060;-61
2023/12/05 00:46:23;;;;;;;8.10;1.63;;;;;;;10.23;87.43;99429.06;5030182;28;20053;-62
2023/12/05 00:48:51;;;;;;;5.97;1.00;;;;;;;10.01;87.70;99432.22;5031369;28;20076;-62
2023/12/05 00:51:18;;;;;;;6.30;1.40;;;;;;;10.09;87.43;99430.53;5030111;28;20041;-62
2023/12/05 00:53:45;;;;;;;7.53;1.35;;;;;;;10.16;87.73;99433.53;5031846;28;20057;-56
2023/12/05 00:56:14;;;;;;;8.85;1.50;;;;;;;10.06;87.94;99439.44;5030088;28;20042;-57
2023/12/05 00:58:42;;;;;;;5.88;1.50;;;;;;;10.17;87.67;99441.44;5014712;28;20054;-59
2023/12/05 01:01:09;;;;;;;8.52;1.30;;;;;;;10.18;87.75;99440.28;5029994;28;20049;-59
2023/12/05 01:03:37;;;;;;;7.32;1.42;;;;;;;10.26;87.42;99438.59;5020093;28;20061;-58
2023/12/05 01:06:05;;;;;;;7.80;1.45;;;;;;;10.20;85.80;99438.00;5039290;28;20148;-58
2023/12/05 01:08:33;;;;;;;8.85;1.17;;;;;;;10.02;87.08;99439.31;5030522;28;20056;-58
2023/12/05 01:11:00;;;;;;;7.53;1.25;;;;;;;10.14;86.84;99433.06;5036736;28;20060;-57
2023/12/05 01:13:39;;;;;;;4.05;1.20;;;;;;;10.35;85.76;99435.72;5049703;28;20064;-59
2023/12/05 01:16:18;;;;;;;7.65;1.75;;;;;;;10.12;85.32;99441.66;5051986;28;20041;-55
2023/12/05 01:18:46;;;;;;;3.97;0.95;;;;;;;10.10;85.86;99443.97;5037033;28;20045;-55
2023/12/05 01:21:13;;;;;;;7.85;1.52;;;;;;;10.11;85.24;99448.31;5030937;28;20129;-62
2023/12/05 01:23:48;;;;;;;5.68;1.20;;;;;;;10.01;85.58;99456.97;5030449;28;20487;-57
2023/12/05 01:26:23;;;;;;;6.10;0.95;;;;;;;10.03;86.35;99454.69;5009435;28;20046;-58
2023/12/05 01:28:51;;;;;;;5.72;1.02;;;;;;;10.17;85.20;99448.91;5010695;28;20057;-58
2023/12/05 01:31:19;;;;;;;5.68;1.20;;;;;;;10.14;84.41;99452.34;5031984;28;20041;-58
2023/12/05 01:33:47;;;;;;;6.28;1.00;;;;;;;10.16;84.81;99463.81;5039358;28;20049;-58
2023/12/05 01:36:14;;;;;;;6.13;1.27;;;;;;;10.23;82.95;99463.25;5031386;28;20061;-58
2023/12/05 01:38:41;;;;;;;3.67;0.85;;;;;;;10.13;84.04;99467.22;5030795;28;20068;-57
2023/12/05 01:41:08;;;;;;;6.70;1.15;;;;;;;9.85;84.24;99469.75;5038452;28;20056;-58
2023/12/05 01:43:36;;;;;;;5.60;1.00;;;;;;;10.05;84.58;99474.41;5049258;28;20045;-60
2023/12/05 01:46:04;;;;;;;8.27;1.13;;;;;;;9.92;84.13;99474.72;5050775;28;20041;-58
2023/12/05 01:48:33;;;;;;;10.40;1.25;;;;;;;10.09;83.91;99469.84;5049115;28;20055;-58
2023/12/05 01:51:02;;;;;;;6.15;1.15;;;;;;;10.27;83.50;99475.97;5044495;28;20068;-58
2023/12/05 01:53:30;;;;;;;4.25;1.00;;;;;;;10.15;82.59;99485.00;5012593;28;20056;-57
2023/12/05 01:55:58;;;;;;;7.10;0.90;;;;;;;10.12;83.17;99474.69;5012416;28;20038;-58
2023/12/05 01:58:27;;;;;;;3.30;0.98;;;;;;;9.97;82.19;99482.75;5033613;28;20049;-59
2023/12/05 02:00:54;;;;;;;8.82;1.10;;;;;;;9.83;82.77;99483.03;5024779;28;20409;-57
2023/12/05 02:03:24;;;;;;;4.25;0.82;;;;;;;9.80;81.92;99493.91;5014127;28;20053;-58
2023/12/05 02:05:52;;;;;;;4.47;1.00;;;;;;;9.55;82.51;99489.44;5019308;28;20456;-57
2023/12/05 02:08:22;;;;;;;8.63;1.23;;;;;;;9.94;82.94;99486.16;5033568;28;20049;-57
2023/12/05 02:10:49;;;;;;;3.13;0.95;;;;;;;9.78;82.13;99485.22;5011810;28;20078;-57
2023/12/05 02:13:16;;;;;;;6.00;0.90;;;;;;;9.92;82.02;99488.47;5019326;28;20050;-57
2023/12/05 02:15:46;;;;;;;8.00;1.02;;;;;;;9.89;82.10;99494.63;5030123;28;20056;-58
2023/12/05 02:18:18;;;;;;;6.00;1.10;;;;;;;9.77;82.00;99495.41;5033243;28;20083;-59
2023/12/05 02:20:53;;;;;;;6.57;1.10;;;;;;;9.81;82.71;99501.03;5032634;28;20049;-56
2023/12/05 02:23:58;;;;;;;5.80;1.40;;;;;;;9.74;83.27;99493.34;5034829;28;20053;-59
2023/12/05 02:26:51;;;;;;;4.88;1.20;;;;;;;9.74;83.57;99498.84;5050096;28;20053;-58
2023/12/05 02:29:19;;;;;;;5.78;0.80;;;;;;;9.75;85.01;99505.13;5035854;28;20117;-59
2023/12/05 02:31:48;;;;;;;4.40;1.08;;;;;;;9.95;84.53;99502.34;5048222;28;20092;-59
2023/12/05 02:35:00;;;;;;;6.63;0.70;;;;;;;9.83;85.28;99507.00;5037350;28;20053;-59
2023/12/05 02:37:50;;;;;;;5.63;1.15;;;;;;;9.98;86.37;99520.94;5034464;28;20045;-57
2023/12/05 02:40:38;;;;;;;3.50;1.17;;;;;;;9.84;86.60;99525.09;5032312;28;20417;-58
2023/12/05 02:43:11;;;;;;;8.15;1.02;;;;;;;9.82;86.58;99521.88;5012524;28;20057;-56
2023/12/05 02:45:39;;;;;;;5.43;1.10;;;;;;;9.62;88.07;99531.78;5013950;28;20054;-57
2023/12/05 02:48:10;;;;;;;7.15;1.15;;;;;;;9.30;88.34;99526.97;5012588;28;20049;-57
2023/12/05 02:50:43;;;;;;;5.63;0.70;;;;;;;8.93;91.35;99530.59;5016917;28;20069;-56
2023/12/05 02:53:10;;;;;;;3.95;1.27;;;;;;;9.05;93.34;99527.94;5036740;28;20053;-59
2023/12/05 02:55:38;;;;;;;3.67;0.70;;;;;;;9.17;91.59;99530.78;5034054;28;20056;-62
2023/12/05 02:58:05;;;;;;;2.08;0.43;;;;;;;8.80;91.98;99542.63;5032211;28;20063;-56
2023/12/05 03:00:32;;;;;;;2.70;0.70;;;;;;;8.54;94.07;99531.75;5032574;28;20076;-56
2023/12/05 03:03:00;;;;;;;8.95;1.13;;;;;;;8.65;95.37;99545.91;5033365;28;20045;-57
2023/12/05 03:05:27;;;;;;;6.78;0.82;;;;;;;8.84;95.98;99538.88;5016328;28;20056;-58
2023/12/05 03:07:54;;;;;;;3.28;0.77;;;;;;;8.94;96.11;99548.69;5033125;28;20053;-56
2023/12/05 03:10:22;;;;;;;3.60;0.75;;;;;;;9.09;95.47;99545.38;5035325;28;20056;-55
2023/12/05 03:12:49;;;;;;;1.75;0.70;;;;;;;9.08;93.93;99541.81;5052647;28;20056;-57
2023/12/05 03:15:16;;;;;;;3.40;0.93;;;;;;;8.67;93.60;99551.88;5053445;28;20049;-59
2023/12/05 03:17:43;;;;;;;3.17;0.60;;;;;;;8.53;95.27;99552.09;5051754;28;20055;-58
2023/12/05 03:20:11;;;;;;;6.60;0.60;;;;;;;8.71;95.42;99550.91;5051659;28;20063;-64
2023/12/05 03:22:38;;;;;;;2.40;0.40;;;;;;;8.72;94.88;99549.75;5034386;28;20588;-56
2023/12/05 03:25:06;;;;;;;3.85;0.70;;;;;;;8.37;94.16;99558.44;5046912;28;20044;-60
2023/12/05 03:27:35;;;;;;;4.55;0.55;;;;;;;8.21;96.61;99573.78;5032835;28;20108;-55
2023/12/05 03:30:03;;;;;;;2.97;0.57;;;;;;;8.16;96.34;99565.72;5032419;28;20381;-56
2023/12/05 03:32:33;;;;;;;1.73;0.30;;;;;;;8.17;97.46;99554.44;5035251;28;20497;-58
2023/12/05 03:35:01;;;;;;;0.80;0.40;;;;;;;7.96;97.18;99540.59;5048778;28;20055;-56
2023/12/05 03:37:28;;;;;;;5.82;0.55;;;;;;;8.02;97.46;99549.44;5020993;28;20358;-57
2023/12/05 03:40:02;;;;;;;3.45;0.32;;;;;;;8.25;96.82;99536.34;5019386;28;20081;-59
2023/12/05 03:42:32;;;;;;;2.75;0.40;;;;;;;8.14;94.64;99543.31;5008359;28;20049;-61
2023/12/05 03:45:13;;;;;;;0.70;0.20;;;;;;;7.91;94.12;99548.97;4998707;28;20061;-57
2023/12/05 03:47:41;;;;;;;1.70;0.30;;;;;;;7.93;95.69;99562.38;5011085;28;20456;-56
2023/12/05 03:50:08;;;;;;;1.30;0.30;;;;;;;7.80;96.79;99552.38;5021207;28;20049;-55
2023/12/05 03:52:35;;;;;;;2.78;0.32;;;;;;;7.72;97.66;99547.69;5045627;28;20051;-56
2023/12/05 03:55:03;;;;;;;2.95;0.45;;;;;;;7.87;98.83;99556.25;5035056;28;20050;-56
2023/12/05 03:57:31;;;;;;;1.92;0.30;;;;;;;7.97;98.77;99564.13;5012881;28;20262;-59
2023/12/05 03:59:58;;;;;;;3.20;0.43;;;;;;;8.06;97.71;99566.84;5024996;28;20298;-56
2023/12/05 04:02:25;;;;;;;2.53;0.40;;;;;;;8.08;97.17;99559.13;5033157;28;20061;-56
2023/12/05 04:04:52;;;;;;;1.23;0.30;;;;;;;8.01;98.47;99553.31;5032035;28;20053;-58
2023/12/05 04:07:20;;;;;;;2.03;0.50;;;;;;;8.21;98.31;99558.09;5032026;28;20053;-58
2023/12/05 04:09:47;;;;;;;3.05;0.47;;;;;;;8.26;98.00;99579.13;5033065;28;20068;-54
2023/12/05 04:12:14;;;;;;;2.15;0.63;;;;;;;7.99;98.07;99583.00;5049155;28;20064;-59
2023/12/05 04:14:42;;;;;;;1.35;0.45;;;;;;;8.22;99.18;99589.09;5052962;28;20071;-57
2023/12/05 04:17:09;;;;;;;2.05;0.50;;;;;;;8.11;98.88;99601.56;5051479;28;20045;-57
2023/12/05 04:19:36;;;;;;;1.95;0.50;;;;;;;8.21;99.69;99595.72;5052549;28;20048;-56
2023/12/05 04:22:04;;;;;;;3.58;0.57;;;;;;;8.18;100.00;99601.84;5053078;28;20060;-58
2023/12/05 04:24:32;;;;;;;2.42;0.50;;;;;;;8.23;100.00;99605.22;5051376;28;20064;-55
2023/12/05 04:26:59;;;;;;;1.17;0.35;;;;;;;8.12;100.00;99597.66;5031235;28;20060;-57
2023/12/05 04:29:26;;;;;;;2.72;0.60;;;;;;;8.07;100.00;99614.28;5032687;28;20693;-59
2023/12/05 04:31:53;;;;;;;3.88;0.50;;;;;;;8.08;100.00;99618.63;5047605;28;20055;-57
2023/12/05 04:34:21;;;;;;;2.00;0.40;;;;;;;8.04;100.00;99615.72;5035534;28;20402;-59
2023/12/05 04:36:50;;;;;;;2.95;0.73;;;;;;;8.24;100.00;99619.78;5014821;28;20050;-59
2023/12/05 04:39:17;;;;;;;1.20;0.40;;;;;;;8.00;100.00;99636.72;5030788;28;20077;-59
2023/12/05 04:41:45;;;;;;;4.35;1.00;;;;;;;8.12;100.00;99631.41;5031803;28;20046;-57
2023/12/05 04:44:12;;;;;;;3.05;0.60;;;;;;;8.33;100.00;99631.56;5032512;28;20049;-56
2023/12/05 04:46:39;;;;;;;4.07;0.82;;;;;;;8.16;100.00;99639.78;5027479;28;20049;-56
2023/12/05 04:49:06;;;;;;;4.03;0.70;;;;;;;8.09;100.00;99642.97;5027034;28;20053;-56
2023/12/05 04:51:34;;;;;;;2.53;0.70;;;;;;;7.93;100.00;99648.16;5030544;28;20164;-57
2023/12/05 04:54:02;;;;;;;3.42;0.77;;;;;;;8.21;100.00;99637.66;5030462;28;20053;-58
2023/12/05 04:56:29;;;;;;;3.00;0.85;;;;;;;8.30;100.00;99645.94;5026406;28;20694;-56
2023/12/05 04:58:56;;;;;;;4.82;1.10;;;;;;;8.26;100.00;99648.53;5011996;28;20081;-55
2023/12/05 05:01:23;;;;;;;2.95;0.60;;;;;;;8.13;100.00;99659.59;5012868;28;20042;-58
2023/12/05 05:03:50;;;;;;;3.75;0.70;;;;;;;8.16;100.00;99648.78;5013314;28;20053;-56
2023/12/05 05:06:18;;;;;;;5.38;1.05;;;;;;;8.11;100.00;99651.69;5011723;28;20057;-61
2023/12/05 05:08:46;;;;;;;7.80;0.90;;;;;;;8.42;100.00;99659.81;5013033;28;20058;-56
2023/12/05 05:11:13;;;;;;;4.78;0.70;;;;;;;8.65;100.00;99661.19;5017062;28;20461;-60
2023/12/05 05:13:41;;;;;;;4.13;0.80;;;;;;;8.39;100.00;99674.16;5011841;28;20065;-55
2023/12/05 05:16:18;;;;;;;2.88;1.00;;;;;;;8.68;100.00;99669.59;5013031;28;20072;-57
2023/12/05 05:18:47;;;;;;;3.85;0.60;;;;;;;8.56;100.00;99668.66;5012584;28;20050;-58
2023/12/05 05:21:15;;;;;;;6.20;1.00;;;;;;;8.58;100.00;99680.91;5028588;28;20053;-57
2023/12/05 05:23:42;;;;;;;3.72;0.85;;;;;;;8.60;100.00;99680.56;5012817;28;20545;-58
2023/12/05 05:26:09;;;;;;;2.97;0.73;;;;;;;8.60;100.00;99681.41;5011954;28;20080;-62
2023/12/05 05:28:37;;;;;;;4.38;0.70;;;;;;;8.71;100.00;99690.09;5013927;28;20046;-61
2023/12/05 05:31:04;;;;;;;4.68;0.70;;;;;;;8.48;100.00;99685.94;5032124;28;20053;-61
2023/12/05 05:33:31;;;;;;;3.40;0.85;;;;;;;8.59;100.00;99695.44;5046163;28;20061;-54
2023/12/05 05:35:58;;;;;;;7.00;0.77;;;;;;;8.70;100.00;99697.50;5036700;28;20068;-63
2023/12/05 05:38:26;;;;;;;3.78;0.75;;;;;;;8.49;100.00;99693.84;5036701;28;20428;-62
2023/12/05 05:41:03;;;;;;;5.68;1.30;;;;;;;8.62;100.00;99695.59;5035440;28;20053;-62
2023/12/05 05:43:31;;;;;;;3.03;0.70;;;;;;;8.40;100.00;99701.28;5034503;28;20045;-61
2023/12/05 05:45:58;;;;;;;3.90;0.90;;;;;;;8.30;100.00;99709.81;5034575;28;20056;-62
2023/12/05 05:48:25;;;;;;;3.38;0.65;;;;;;;8.28;100.00;99714.03;5033531;28;20489;-57
2023/12/05 05:50:52;;;;;;;3.10;0.90;;;;;;;8.38;100.00;99719.19;5021218;28;20835;-57
2023/12/05 05:53:20;;;;;;;5.40;0.90;;;;;;;8.33;100.00;99730.31;5035276;28;20053;-57
2023/12/05 05:55:47;;;;;;;4.00;0.70;;;;;;;8.22;100.00;99731.72;5035030;28;20057;-56
2023/12/05 05:58:14;;;;;;;6.78;1.25;;;;;;;7.99;100.00;99729.13;5032760;28;20057;-57
2023/12/05 06:00:41;;;;;;;1.92;0.70;;;;;;;8.11;100.00;99736.72;5034674;28;20053;-55
2023/12/05 06:03:09;;;;;;;3.05;0.73;;;;;;;8.15;100.00;99745.13;5035390;28;20041;-57
2023/12/05 06:05:37;;;;;;;5.78;1.00;;;;;;;8.06;100.00;99747.84;5033212;28;20061;-58
2023/12/05 06:08:04;;;;;;;5.88;0.90;;;;;;;8.04;100.00;99749.31;5033492;28;20040;-57
2023/12/05 06:10:31;;;;;;;3.90;1.00;;;;;;;8.29;100.00;99754.03;5035497;28;20057;-60
2023/12/05 06:12:59;;;;;;;6.32;1.00;;;;;;;8.34;100.00;99751.94;5054719;28;20056;-56
2023/12/05 06:15:26;;;;;;;5.32;1.27;;;;;;;8.37;100.00;99761.50;5046695;28;20053;-58
2023/12/05 06:17:55;;;;;;;2.88;0.98;;;;;;;8.11;100.00;99755.91;5023874;28;20049;-61
2023/12/05 06:20:23;;;;;;;7.43;1.20;;;;;;;8.00;100.00;99762.84;5034646;28;20101;-62
2023/12/05 06:22:50;;;;;;;4.40;1.10;;;;;;;8.04;100.00;99768.50;5034423;28;20041;-63
2023/12/05 06:25:17;;;;;;;2.90;1.00;;;;;;;8.04;100.00;99776.75;5025651;28;20069;-61
2023/12/05 06:27:47;;;;;;;6.72;1.00;;;;;;;8.17;100.00;99771.13;5014075;28;20405;-57
2023/12/05 06:30:15;;;;;;;4.60;1.27;;;;;;;8.17;100.00;99787.56;5035214;28;20045;-57
2023/12/05 06:32:52;;;;;;;4.30;0.90;;;;;;;8.16;100.00;99774.97;5028667;28;20048;-58
2023/12/05 06:35:20;;;;;;;4.30;0.93;;;;;;;8.13;100.00;99780.28;5049515;28;20056;-52
2023/12/05 06:37:49;;;;;;;4.72;0.90;;;;;;;8.27;100.00;99792.78;5033206;28;20060;-63
2023/12/05 06:40:16;;;;;;;4.95;1.30;;;;;;;8.47;100.00;99796.84;5029316;28;20057;-62
2023/12/05 06:42:43;;;;;;;3.95;1.05;;;;;;;8.31;100.00;99801.16;5022849;28;20046;-61
2023/12/05 06:45:11;;;;;;;5.00;1.10;;;;;;;8.08;100.00;99814.16;5033354;28;20057;-62
2023/12/05 06:47:38;;;;;;;4.95;0.98;;;;;;;8.08;100.00;99807.84;5031958;28;20052;-61
2023/12/05 06:50:10;;;;;;;5.38;1.10;;;;;;;7.95;100.00;99821.38;5031877;28;20064;-65
2023/12/05 06:52:39;;;;;;;6.45;1.35;;;;;;;7.95;100.00;99821.38;5047466;28;20053;-63
2023/12/05 06:55:08;;;;;;;6.47;1.00;;;;;;;8.27;100.00;99833.91;5030433;28;20064;-62
2023/12/05 06:57:35;;;;;;;4.97;1.08;;;;;;;8.29;100.00;99822.63;5028738;28;20041;-62
2023/12/05 07:00:04;;;;;;;4.88;1.05;;;;;;;8.30;100.00;99829.75;5031839;28;20041;-61
2023/12/05 07:02:32;;;;;;;2.65;0.77;;;;;;;8.23;100.00;99837.59;5030770;28;20052;-61
2023/12/05 07:05:02;;;;;;;9.20;1.60;;;;;;;8.34;100.00;99839.75;5032139;28;20068;-62
2023/12/05 07:07:30;;;;;;;5.38;1.25;;;;;;;8.27;100.00;99850.38;5030022;28;20248;-61
2023/12/05 07:09:58;;;;;;;2.70;1.05;;;;;;;7.92;100.00;99856.84;5026642;28;20052;-61
2023/12/05 07:12:34;;;;;;;7.55;1.17;;;;;;;8.05;100.00;99855.94;5031322;28;20524;-62
2023/12/05 07:15:03;;;;;;;4.65;0.95;;;;;;;7.98;100.00;99863.81;5028708;28;20107;-61
2023/12/05 07:17:30;;;;;;;8.32;1.55;;;;;;;8.09;100.00;99870.63;5030897;28;20064;-62
2023/12/05 07:19:58;;;;;;;4.47;1.00;;;;;;;8.02;100.00;99874.97;5032170;28;20060;-61
2023/12/05 07:22:26;;;;;;;5.35;1.27;;;;;;;8.05;100.00;99874.31;5032688;28;20045;-61
2023/12/05 07:24:53;;;;;;;5.53;1.30;;;;;;;8.15;100.00;99887.75;5047312;28;20057;-62
2023/12/05 07:27:20;;;;;;;5.03;1.30;;;;;;;7.98;100.00;99888.50;5031640;28;20060;-62
2023/12/05 07:29:47;;;;;;;8.93;1.25;;;;;;;7.94;100.00;99882.03;5031268;28;20049;-58
2023/12/05 07:32:15;;;;;;;3.38;1.30;;;;;;;8.02;100.00;99894.94;5037126;28;20707;-62
2023/12/05 07:34:43;;;;;;;5.28;1.50;;;;;;;8.39;100.00;99888.97;5034248;28;20692;-61
2023/12/05 07:37:10;;;;;;;3.45;1.13;;;;;;;8.21;100.00;99901.00;5031569;28;20049;-56
2023/12/05 07:39:37;;;;;;;7.30;1.50;;;;;;;8.06;100.00;99895.94;5022761;28;20128;-56
2023/12/05 07:42:04;;;;;;;4.95;1.20;;;;;;;8.25;100.00;99901.19;5031305;28;20472;-58
2023/12/05 07:44:32;;;;;;;4.03;1.23;;;;;;;8.18;100.00;99909.88;5030909;28;20053;-58
2023/12/05 07:46:59;;;;;;;4.93;1.23;;;;;;;8.03;100.00;99915.78;5030397;28;20056;-61
2023/12/05 07:49:26;;;;;;;7.72;1.50;;;;;;;8.05;100.00;99918.19;5030649;28;20421;-63
2023/12/05 07:51:54;;;;;;;4.00;1.50;;;;;;;8.29;100.00;99924.13;5030880;28;20459;-55
2023/12/05 07:54:21;;;;;;;4.57;1.40;;;;;;;8.24;100.00;99921.53;5026478;28;20049;-58
2023/12/05 07:56:48;;;;;;;9.30;1.50;;;;;;;8.39;100.00;99929.31;5025512;28;20050;-59
2023/12/05 07:59:17;;;;;;;3.83;1.30;;;;;;;8.12;100.00;99937.75;5024065;28;20125;-59
2023/12/05 08:01:46;;;;;;;7.15;1.40;;;;;;;8.50;100.00;99936.16;5025720;28;20044;-58
2023/12/05 08:04:13;;;;;;;4.33;1.27;;;;;;;8.31;100.00;99935.59;5027086;28;20400;-58
2023/12/05 08:06:41;;;;;;;2.03;0.93;;;;;;;9.13;99.31;99939.97;5027491;28;20052;-58
2023/12/05 08:09:08;;;;;;;5.53;1.05;;;;;;;9.06;94.29;99938.84;5027705;28;20037;-62
2023/12/05 08:11:36;;;;;;;3.83;1.05;;;;;;;8.62;96.17;99945.41;5028330;28;20054;-62
2023/12/05 08:14:03;;;;;;;3.35;1.52;;;;;;;8.35;99.56;99951.09;5026684;28;20427;-63
2023/12/05 08:16:30;;;;;;;3.50;1.25;;;;;;;8.05;100.00;99951.94;5026927;28;20052;-62
2023/12/05 08:19:00;;;;;;;6.88;1.42;;;;;;;8.29;100.00;99957.88;5012492;28;20049;-61
2023/12/05 08:21:27;;;;;;;4.25;1.58;;;;;;;8.30;100.00;99964.19;5025600;28;20049;-62
2023/12/05 08:23:55;;;;;;;5.03;1.63;;;;;;;8.27;100.00;99964.78;5025738;28;20061;-64
2023/12/05 08:26:22;;;;;;;4.18;1.35;;;;;;;8.41;100.00;99968.25;5024941;28;20528;-64
2023/12/05 08:28:49;;;;;;;7.25;1.58;;;;;;;8.00;100.00;99968.53;5027734;28;20076;-63
2023/12/05 08:31:16;;;;;;;3.25;1.17;;;;;;;8.18;100.00;99975.69;5032824;28;20037;-62
2023/12/05 08:33:43;;;;;;;5.25;1.30;;;;;;;8.19;100.00;99973.78;5023721;28;20060;-63
2023/12/05 08:36:11;;;;;;;2.33;1.10;;;;;;;8.11;100.00;100000.03;5026419;28;20469;-63
2023/12/05 08:38:38;;;;;;;4.88;1.42;;;;;;;8.00;100.00;99988.50;5016238;28;20045;-62
2023/12/05 08:41:06;;;;;;;5.28;1.52;;;;;;;8.15;100.00;99991.97;5027102;28;20049;-63
2023/12/05 08:43:33;;;;;;;5.28;1.13;;;;;;;8.45;100.00;99996.66;5026883;28;20052;-62
2023/12/05 08:46:02;;;;;;;4.03;1.30;;;;;;;8.41;100.00;99995.69;5024683;28;20057;-63
2023/12/05 08:48:31;;;;;;;;;;;;;;;8.00;100.00;100004.97;5028694;28;20060;-62
2023/12/05 08:50:58;;;;;;;9.27;2.20;;;;;;;8.19;100.00;99998.47;5012152;28;20422;-63
2023/12/05 08:53:25;;;;;;;5.82;1.45;;;;;;;8.02;100.00;99988.19;5030401;28;20049;-64
2023/12/05 08:55:53;;;;;;;4.40;1.30;;;;;;;8.10;100.00;100012.13;5023799;28;20049;-62
2023/12/05 08:58:20;;;;;;;5.47;1.40;;;;;;;7.97;100.00;100007.53;5026729;28;20050;-63
2023/12/05 09:00:47;;;;;;;4.55;1.60;;;;;;;7.98;100.00;100020.13;5022328;28;20425;-62
2023/12/05 09:03:15;;;;;;;3.47;1.27;;;;;;;8.13;100.00;100022.47;5028110;28;20060;-63
2023/12/05 09:05:42;;;;;;;8.05;1.60;;;;;;;8.22;100.00;100020.59;5022904;28;20058;-63
2023/12/05 09:08:10;;;;;;;4.53;1.35;;;;;;;8.13;100.00;100021.66;5026453;28;20053;-62
2023/12/05 09:10:38;;;;;;;5.00;1.30;;;;;;;8.51;100.00;100029.16;5024747;28;20052;-62
2023/12/05 09:13:05;;;;;;;4.60;1.25;;;;;;;8.30;100.00;100024.53;5027163;28;20052;-63
2023/12/05 09:15:33;;;;;;;5.10;1.40;;;;;;;8.42;100.00;100033.00;5021263;28;20068;-64
2023/12/05 09:18:00;;;;;;;4.25;1.30;;;;;;;8.50;99.68;100045.94;5021579;28;20753;-63
2023/12/05 09:20:28;;;;;;;4.15;1.65;;;;;;;8.16;100.00;100046.50;5022363;28;20050;-63
2023/12/05 09:22:56;;;;;;;2.83;1.30;;;;;;;8.34;100.00;100050.19;5023910;28;20046;-66
2023/12/05 09:25:28;;;;;;;2.88;1.08;;;;;;;8.33;100.00;100049.41;5022703;28;20738;-63
2023/12/05 09:27:55;;;;;;;4.55;1.33;;;;;;;8.18;100.00;100048.94;5031652;28;20041;-64
2023/12/05 09:30:22;;;;;;;6.72;1.52;;;;;;;8.27;100.00;100049.84;5018032;28;20065;-65
2023/12/05 09:32:49;;;;;;;6.15;1.92;;;;;;;8.19;100.00;100054.13;5025516;28;20049;-64
2023/12/05 09:35:17;;;;;;;6.72;1.65;;;;;;;8.17;100.00;100059.13;5022118;28;20589;-62
2023/12/05 09:37:44;;;;;;;4.28;1.63;;;;;;;8.23;100.00;100065.28;5028169;28;20049;-62
2023/12/05 09:40:12;;;;;;;7.38;2.15;;;;;;;8.18;100.00;100058.00;5017333;28;20060;-60
2023/12/05 09:42:43;;;;;;;4.70;1.40;;;;;;;8.58;100.00;100067.94;5023542;28;20046;-63
2023/12/05 09:45:14;;;;;;;6.45;1.52;;;;;;;8.60;99.63;100070.34;5024245;28;20460;-64
2023/12/05 09:47:45;;;;;;;6.50;1.88;;;;;;;9.67;97.36;100078.72;5025855;28;20058;-62
2023/12/05 09:50:13;;;;;;;5.95;1.95;;;;;;;9.18;94.19;100081.88;5027795;28;20050;-60
2023/12/05 09:52:41;;;;;;;6.68;1.60;;;;;;;8.84;95.77;100088.06;5028853;28;20049;-59
2023/12/05 09:55:09;;;;;;;6.50;2.15;;;;;;;8.79;97.18;100085.47;5025342;28;20110;-59
2023/12/05 09:57:39;;;;;;;5.53;2.03;;;;;;;8.92;98.54;100098.28;5024898;28;20666;-63
2023/12/05 10:00:07;;;;;;;;;;;;;;;8.94;97.32;100100.72;5028587;28;20045;-58
2023/12/05 10:02:37;;;;;;;;;;;;;;;8.81;98.15;100101.63;5026921;28;19921;-58
2023/12/05 10:05:08;;;;;;;6.97;2.30;;;;;;;9.00;98.18;100110.41;5026497;28;20327;-56
2023/12/05 10:07:37;;;;;;;6.50;2.30;;;;;;;8.55;97.68;100114.41;5027636;28;20056;-60
2023/12/05 10:10:05;;;;;;;7.05;2.63;;;;;;;8.92;99.73;100123.00;5025750;28;20121;-59
2023/12/05 10:12:32;;;;;;;6.78;2.90;;;;;;;8.50;98.93;100120.84;5006606;28;20061;-61
2023/12/05 10:15:00;;;;;;;7.97;2.53;;;;;;;8.57;99.80;100123.97;5029481;28;21217;-60
2023/12/05 10:17:29;;;;;;;7.05;3.05;;;;;;;8.45;99.30;100114.69;5024026;28;20057;-55
2023/12/05 10:19:56;;;;;;;10.43;2.28;;;;;;;8.42;99.44;100124.34;5025378;28;20906;-57
2023/12/05 10:22:26;;;;;;;7.63;2.13;;;;;;;8.79;99.25;100134.88;5025776;28;20057;-55
2023/12/05 10:24:56;;;;;;;12.00;2.55;;;;;;;8.76;97.54;100131.97;5028215;28;20057;-58
2023/12/05 10:27:24;;;;;;;9.30;2.90;;;;;;;8.89;97.02;100129.13;5026238;28;20068;-53
2023/12/05 10:29:51;;;;;;;5.00;2.10;;;;;;;8.74;96.45;100134.22;5028355;28;20056;-54
2023/12/05 10:32:28;;;;;;;7.07;2.58;;;;;;;8.58;96.50;100131.06;5010500;28;20406;-57
2023/12/05 10:35:01;;;;;;;7.32;2.30;;;;;;;8.66;96.94;100135.81;5028092;28;20045;-56
2023/12/05 10:37:29;;;;;;;6.85;2.00;;;;;;;8.79;95.78;100143.13;5030382;28;20057;-57
2023/12/05 10:39:58;;;;;;;7.75;2.00;;;;;;;8.57;95.59;100147.84;5030181;28;20045;-55
2023/12/05 10:42:27;;;;;;;6.38;1.95;;;;;;;8.40;97.20;100145.81;5029964;28;20057;-56
2023/12/05 10:44:55;;;;;;;5.13;1.92;;;;;;;8.65;98.22;100141.59;5031777;28;20053;-59
2023/12/05 10:47:23;;;;;;;8.63;2.10;;;;;;;8.64;96.90;100140.78;5031235;28;20053;-57
2023/12/05 10:49:51;;;;;;;9.20;1.88;;;;;;;8.61;96.97;100141.41;5027120;28;20041;-57
2023/12/05 10:52:20;;;;;;;10.48;2.67;;;;;;;8.82;96.05;100145.22;5004844;28;20182;-56
2023/12/05 10:54:54;;;;;;;12.80;2.38;;;;;;;8.65;95.32;100156.13;5028287;28;20045;-59
2023/12/05 10:57:30;;;;;;;7.75;2.25;;;;;;;8.52;95.39;100161.69;5025239;28;20053;-56
2023/12/05 10:59:57;;;;;;;10.23;2.70;;;;;;;8.41;96.97;100158.41;5027450;28;20116;-58
2023/12/05 11:02:24;;;;;;;8.43;2.22;;;;;;;8.82;96.53;100163.66;5022141;28;20054;-59
2023/12/05 11:04:52;;;;;;;5.97;2.13;;;;;;;8.78;95.37;100162.66;5028939;28;20049;-58
2023/12/05 11:07:19;;;;;;;12.35;2.50;;;;;;;8.60;95.53;100175.47;5012256;28;20053;-57
2023/12/05 11:09:47;;;;;;;5.60;1.88;;;;;;;8.62;95.88;100180.66;5028250;28;20033;-58
2023/12/05 11:12:16;;;;;;;8.38;3.35;;;;;;;8.80;94.73;100174.94;5020385;28;20057;-58
2023/12/05 11:14:45;;;;;;;16.20;4.93;;;;;;;8.68;95.10;100168.44;5021720;28;20141;-59
2023/12/05 11:17:21;;;;;;;13.85;5.25;;;;;;;8.65;95.37;100175.34;5023506;28;20054;-58
2023/12/05 11:20:10;;;;;;;11.55;3.42;;;;;;;8.61;95.68;100179.03;5017741;28;20401;-56
2023/12/05 11:22:44;;;;;;;;;;;;;;;8.58;96.40;100180.47;5018958;28;20064;-59
2023/12/05 11:25:23;;;;;;;14.68;4.13;;;;;;;8.71;95.01;100176.84;5006646;28;19928;-58
2023/12/05 11:28:09;;;;;;;18.30;6.18;;;;;;;8.88;95.48;100173.38;5021834;28;20083;-58
2023/12/05 11:30:59;;;;;;;18.27;6.05;;;;;;;8.74;94.87;100181.72;5020206;28;20052;-57
2023/12/05 11:34:00;;;;;;;17.48;4.50;;;;;;;8.72;95.19;100191.38;5029239;28;20049;-58
2023/12/05 11:36:36;;;;;;;10.07;3.20;;;;;;;8.64;95.73;100192.13;5021416;28;20050;-59
2023/12/05 11:39:04;;;;;;;15.07;3.80;;;;;;;8.75;95.50;100199.00;5025143;28;20498;-56
2023/12/05 11:41:35;;;;;;;9.00;3.30;;;;;;;8.69;95.39;100197.50;5020585;28;20041;-58
2023/12/05 11:44:12;;;;;;;15.05;3.28;;;;;;;8.80;96.22;100193.38;5023632;28;20116;-59